Airfield :
LOGIN :

Register | Disclaimer

   EN    FR    IT 

 










Legend :    VFR   Marginal VFR   IFR   Intensive IFR   Very Intensive IFR
Visi :
Ceiling :
>= 8 km
>= 3000ft
5 to 8 km
1000 to 3000 ft
1500m to 5 km
500 to 1000 ft
800 to 1500m
200 to 500 ft
< 800m
< 200 ft
Symbols :   Thunderstorms  Fog  Heavy snow  Heavy precipitations  Wind > 20 kt
SIGMETs :     Misc.  Thunderstorms  Icing  Turbulence  Mountain Waves  Volcanic Ashes







- Airport Elevation : 184 ft
- IATA code : BRU


EBBR - Bruxelles

CURRENT METAR :
  • 190020Z 07008KT CAVOK 01/M03 Q1023 NOSIG

EXPIRED METARs :
  • 182350Z 07008KT CAVOK 01/M03 Q1024 NOSIG
  • 182320Z 07008KT CAVOK 01/M02 Q1024 NOSIG
  • 182250Z 06007KT CAVOK 01/M03 Q1024 NOSIG
  • 182220Z 06005KT CAVOK 00/M04 Q1024 NOSIG
  • 182150Z 06005KT CAVOK 00/M05 Q1024 NOSIG

TAF TAF EBBR
Valid from the 19 at 00:00 until the 20 at 06:00 UTC


182300Z 1900/2006 06008KT CAVOK
BECMG 1902/1904 SCT009 BKN014
PROB30
TEMPO 1902/1905 -FZDZ
PROB40
TEMPO 1903/1907 4000 -DZ BR BKN006
BECMG 1907/1910 SCT015 BKN025
PROB30
TEMPO 1910/1920 06015G25KT SHRA
PROB30
TEMPO 1920/2006 4500 -SHSNRA
No reported NOTAMs for that airfield.



MET'MAP, your aeronautical weather chart ! - Copyright ORBIFLY December 2007 - Disclaimer

ORBIFLY MET'MAP TEAM :

Programming & Development : Alexandra Zaïnal
Concept & Development : Baudouin d'Aumeries
Co-Development & Prog : Marc-Olivier Méhu
Technical & hardware support : Manuel Goepfert

Contact : metmap@orbifly.com




SOURCES & CREDITS :

   NOAA